Дата Пункты Температура Давл., мм. Влажн., % Ветер Погодные явления
Воздуха Воды Направл. Скорость
29.04.19 03:00 Одесса 14.0 11.0 754 71 З 3 03 ГОДИНИ
28.04.19 09:00 Одесса 13.0 11.0 754 88 Пд-З 2 21 ГОДИНУ
28.04.19 06:00 Одесса 16.0 11.0 753 80 Пд-З 2 18 ГОДИН
28.04.19 03:00 Одесса 16.0 11.0 754 73 Пд-З 4 15 ГОДИН
28.04.19 12:00 Одесса 13.0 11.0 755 85 Пд 4 12 ГОДИН
28.04.19 09:00 Одесса 13.0 11.0 755 88 Пд 4 09 ГОДИН
28.04.19 06:00 Одесса 11.0 10.0 755 93 Пд-З 2 06 ГОДИН
28.04.19 03:00 Одесса 11.0 10.0 755 90 Пд-З 1 03 ГОДИНИ
27.04.19 09:00 Одесса 13.0 11.0 756 68 Пд-З 2 21 ГОДИНУ
27.04.19 06:00 Одесса 13.0 11.0 757 82 Пд 4 18 ГОДИН
27.04.19 03:00 Одесса 14.0 11.0 759 74 Пд 5 15 ГОДИН
27.04.19 12:00 Одесса 14.0 11.0 760 75 Пд 4 12 ГОДИН
27.04.19 09:00 Одесса 13.0 11.0 760 71 Пд 4 09 ГОДИН
27.04.19 06:00 Одесса 10.0 10.0 760 81 Пд-З 1 06 ГОДИН
27.04.19 03:00 Одесса 10.0 10.0 761 87 Пд 1 03 ГОДИНИ
26.04.19 09:00 Одесса 12.0 10.0 762 67 Пд-З 1 21 ГОДИНУ
26.04.19 06:00 Одесса 14.0 10.0 762 59 Пд 3 18 ГОДИН
26.04.19 03:00 Одесса 13.0 10.0 764 64 Пд 3 15 ГОДИН
26.04.19 12:00 Одесса 13.0 11.0 764 71 Пд 4 12 ГОДИН
26.04.19 09:00 Одесса 12.0 11.0 764 75 Пд 2 09 ГОДИН
Количество строк
1 2 3 4 5 6 7 8 9 10
Page 9 of 491